createdAt,value
2018-06-19T00:01:11.041Z,65.73
2018-06-19T00:03:38.936Z,65.24
2018-06-19T00:06:07.065Z,65.20
2018-06-19T00:08:34.780Z,65.85
2018-06-19T00:11:02.410Z,65.80
2018-06-19T00:13:30.162Z,65.27
2018-06-19T00:15:57.966Z,65.92
2018-06-19T00:18:28.602Z,65.55
2018-06-19T00:20:59.140Z,65.78
2018-06-19T00:23:26.795Z,65.66
2018-06-19T00:25:54.465Z,65.89
2018-06-19T00:28:22.366Z,65.57
2018-06-19T00:30:49.966Z,65.83
2018-06-19T00:33:17.671Z,66.08
2018-06-19T00:35:45.518Z,65.82
2018-06-19T00:38:13.169Z,65.58
2018-06-19T00:40:40.877Z,65.57
2018-06-19T00:43:08.894Z,65.67
2018-06-19T00:45:36.559Z,65.64
2018-06-19T00:48:04.235Z,65.64
2018-06-19T00:50:33.093Z,65.70
2018-06-19T00:53:01.346Z,65.72
2018-06-19T00:55:28.968Z,65.60
2018-06-19T00:57:56.967Z,65.77
2018-06-19T01:00:24.551Z,65.64
2018-06-19T01:02:52.209Z,65.83
2018-06-19T01:05:20.235Z,65.66
2018-06-19T01:07:48.058Z,65.79
2018-06-19T01:10:15.681Z,65.68
2018-06-19T01:12:43.489Z,65.63
2018-06-19T01:15:11.098Z,65.82
2018-06-19T01:17:38.757Z,66.23
2018-06-19T01:20:07.237Z,66.16
2018-06-19T01:22:34.877Z,65.69
2018-06-19T01:25:02.455Z,66.02
2018-06-19T01:27:30.310Z,65.67
2018-06-19T01:29:57.921Z,65.87
2018-06-19T01:32:25.607Z,65.86
2018-06-19T01:34:53.734Z,65.71
2018-06-19T01:37:21.292Z,65.73
2018-06-19T01:39:48.896Z,65.75
2018-06-19T01:42:16.827Z,66.20
2018-06-19T01:44:44.421Z,65.82
2018-06-19T01:47:12.055Z,65.91
2018-06-19T01:49:39.929Z,65.70
2018-06-19T01:52:07.552Z,66.26
2018-06-19T01:54:35.200Z,66.14
2018-06-19T01:57:02.970Z,66.29
2018-06-19T01:59:30.545Z,66.18
2018-06-19T02:01:58.144Z,66.16
2018-06-19T02:04:26.281Z,65.88
2018-06-19T02:06:53.878Z,65.99
2018-06-19T02:09:21.684Z,66.01
2018-06-19T02:11:49.642Z,65.93
2018-06-19T02:14:17.247Z,66.03
2018-06-19T02:16:44.873Z,65.85
2018-06-19T02:19:12.923Z,65.83
2018-06-19T02:21:40.517Z,66.06
2018-06-19T02:24:08.191Z,66.27
2018-06-19T02:26:36.211Z,66.07
2018-06-19T02:29:03.788Z,66.43
2018-06-19T02:31:31.410Z,66.50
2018-06-19T02:33:59.434Z,66.16
2018-06-19T02:36:27.022Z,65.97
2018-06-19T02:38:54.603Z,66.39
2018-06-19T02:41:22.714Z,66.41
2018-06-19T02:43:50.315Z,66.25
2018-06-19T02:46:17.928Z,66.23
2018-06-19T02:48:46.035Z,66.25
2018-06-19T02:51:13.683Z,66.23
2018-06-19T02:53:41.298Z,66.44
2018-06-19T02:56:09.369Z,66.23
2018-06-19T02:58:37.008Z,66.40
2018-06-19T03:01:04.661Z,66.19
2018-06-19T03:03:32.637Z,65.90
2018-06-19T03:06:00.220Z,66.05
2018-06-19T03:08:27.868Z,66.00
2018-06-19T03:10:56.094Z,66.31
2018-06-19T03:13:23.684Z,66.24
2018-06-19T03:15:51.299Z,66.03
2018-06-19T03:18:19.308Z,66.52
2018-06-19T03:20:46.944Z,66.00
2018-06-19T03:23:14.539Z,66.41
2018-06-19T03:25:42.481Z,66.57
2018-06-19T03:28:10.015Z,66.11
2018-06-19T03:30:37.582Z,66.21
2018-06-19T03:33:05.597Z,66.33
2018-06-19T03:35:33.164Z,66.09
2018-06-19T03:38:00.831Z,66.58
2018-06-19T03:40:28.893Z,66.59
2018-06-19T03:42:56.469Z,66.48
2018-06-19T03:45:24.185Z,66.28
2018-06-19T03:47:52.298Z,66.71
2018-06-19T03:50:19.917Z,66.24
2018-06-19T03:52:47.522Z,66.79
2018-06-19T03:55:15.645Z,66.77
2018-06-19T03:57:43.252Z,66.32
2018-06-19T04:00:10.849Z,66.71
2018-06-19T04:02:38.711Z,66.59
2018-06-19T04:05:06.324Z,66.78
2018-06-19T04:07:34.196Z,66.79
2018-06-19T04:10:02.502Z,66.61
2018-06-19T04:12:30.263Z,66.59
2018-06-19T04:14:57.885Z,66.83
2018-06-19T04:17:26.853Z,66.86
2018-06-19T04:19:55.532Z,66.43
2018-06-19T04:22:23.395Z,66.86
2018-06-19T04:24:52.904Z,66.85
2018-06-19T04:27:35.417Z,66.82
2018-06-19T04:30:03.629Z,66.85
2018-06-19T04:32:31.189Z,66.99
2018-06-19T04:34:58.847Z,66.51
2018-06-19T04:37:26.842Z,66.88
2018-06-19T04:39:54.434Z,66.90
2018-06-19T04:42:22.052Z,66.98
2018-06-19T04:44:49.961Z,66.90
2018-06-19T04:47:17.540Z,66.63
2018-06-19T04:49:45.314Z,67.03
2018-06-19T04:52:14.079Z,66.49
2018-06-19T04:54:41.653Z,66.73
2018-06-19T04:57:09.307Z,66.69
2018-06-19T04:59:37.351Z,67.05
2018-06-19T05:02:04.958Z,67.07
2018-06-19T05:04:32.587Z,66.53
2018-06-19T05:07:00.397Z,67.01
2018-06-19T05:09:28.011Z,66.54
2018-06-19T05:11:55.668Z,66.84
2018-06-19T05:14:23.677Z,66.62
2018-06-19T05:16:51.257Z,66.77
2018-06-19T05:19:18.883Z,66.67
2018-06-19T05:21:47.097Z,66.82
2018-06-19T05:24:14.763Z,66.84
2018-06-19T05:26:42.411Z,66.88
2018-06-19T05:29:10.360Z,67.48
2018-06-19T05:31:37.997Z,67.58
2018-06-19T05:34:05.630Z,67.26
2018-06-19T05:36:33.579Z,67.67
2018-06-19T05:39:01.316Z,67.49
2018-06-19T05:41:28.984Z,67.77
2018-06-19T05:43:56.892Z,68.28
2018-06-19T05:46:24.607Z,68.37
2018-06-19T05:48:52.230Z,68.67
2018-06-19T05:51:20.132Z,68.27
2018-06-19T05:53:47.788Z,68.69
2018-06-19T05:56:15.385Z,68.70
2018-06-19T05:58:43.457Z,68.79
2018-06-19T06:01:11.043Z,68.87
2018-06-19T06:03:38.618Z,68.94
2018-06-19T06:06:06.558Z,69.12
2018-06-19T06:08:34.174Z,69.14
2018-06-19T06:11:01.780Z,69.19
2018-06-19T06:13:29.706Z,69.41
2018-06-19T06:15:57.863Z,69.11
2018-06-19T06:18:25.644Z,69.57
2018-06-19T06:20:53.783Z,69.49
2018-06-19T06:23:21.382Z,69.42
2018-06-19T06:25:49.072Z,69.23
2018-06-19T06:28:16.906Z,69.49
2018-06-19T06:30:44.500Z,69.16
2018-06-19T06:33:12.109Z,69.72
2018-06-19T06:35:40.049Z,69.42
2018-06-19T06:38:07.666Z,69.15
2018-06-19T06:40:35.317Z,69.14
2018-06-19T06:43:03.269Z,69.35
2018-06-19T06:45:30.949Z,69.75
2018-06-19T06:47:58.546Z,69.40
2018-06-19T06:50:26.567Z,69.26
2018-06-19T06:52:54.205Z,69.41
2018-06-19T06:55:21.830Z,69.33
2018-06-19T06:57:49.681Z,69.32
2018-06-19T07:00:17.343Z,69.69
2018-06-19T07:02:44.893Z,69.70
2018-06-19T07:05:12.607Z,69.66
2018-06-19T07:07:40.218Z,69.45
2018-06-19T07:10:07.913Z,69.75
2018-06-19T07:12:35.844Z,69.22
2018-06-19T07:15:03.562Z,69.71
2018-06-19T07:17:31.418Z,69.75
2018-06-19T07:19:59.240Z,69.69
2018-06-19T07:22:26.886Z,69.58
2018-06-19T07:24:54.543Z,69.28
2018-06-19T07:27:22.613Z,69.87
2018-06-19T07:29:50.196Z,69.75
2018-06-19T07:32:17.894Z,69.74
2018-06-19T07:34:45.857Z,69.23
2018-06-19T07:37:13.437Z,69.29
2018-06-19T07:39:41.053Z,69.41
2018-06-19T07:42:08.845Z,69.42
2018-06-19T07:44:36.481Z,69.80
2018-06-19T07:47:04.136Z,69.41
2018-06-19T07:49:31.995Z,69.61
2018-06-19T07:51:59.637Z,69.91
2018-06-19T07:54:27.313Z,69.80
2018-06-19T07:56:55.244Z,69.71
2018-06-19T07:59:22.823Z,69.81
2018-06-19T08:01:50.405Z,69.35
2018-06-19T08:04:18.250Z,69.86
2018-06-19T08:06:45.895Z,69.29
2018-06-19T08:09:13.578Z,69.89
2018-06-19T08:11:41.577Z,69.49
2018-06-19T08:14:09.203Z,69.50
2018-06-19T08:16:36.807Z,69.71
2018-06-19T08:19:05.029Z,69.44
2018-06-19T08:21:32.630Z,69.28
2018-06-19T08:24:00.232Z,69.38
2018-06-19T08:26:28.214Z,69.71
2018-06-19T08:28:55.924Z,69.32
2018-06-19T08:31:23.571Z,69.05
2018-06-19T08:33:51.587Z,69.06
2018-06-19T08:36:19.224Z,69.36
2018-06-19T08:38:46.888Z,69.52
2018-06-19T08:41:14.896Z,69.01
2018-06-19T08:43:42.548Z,68.95
2018-06-19T08:46:10.195Z,69.30
2018-06-19T08:48:38.049Z,68.90
2018-06-19T08:51:05.627Z,69.21
2018-06-19T08:53:33.321Z,68.74
2018-06-19T08:56:01.385Z,68.84
2018-06-19T08:58:28.994Z,69.29
2018-06-19T09:00:56.623Z,69.22
2018-06-19T09:03:24.392Z,68.64
2018-06-19T09:05:51.995Z,68.95
2018-06-19T09:08:19.635Z,68.65
2018-06-19T09:10:47.406Z,68.33
2018-06-19T09:13:15.049Z,68.75
2018-06-19T09:15:42.639Z,68.31
2018-06-19T09:18:10.603Z,68.64
2018-06-19T09:20:38.476Z,68.18
2018-06-19T09:23:06.173Z,68.29
2018-06-19T09:25:34.051Z,68.12
2018-06-19T09:28:01.864Z,67.76
2018-06-19T09:30:29.532Z,67.77
2018-06-19T09:32:57.472Z,67.68
2018-06-19T09:35:25.071Z,67.44
2018-06-19T09:37:52.709Z,67.41
2018-06-19T09:40:20.507Z,67.33
2018-06-19T09:42:48.175Z,67.57
2018-06-19T09:45:15.686Z,67.46
2018-06-19T09:47:43.819Z,67.50
2018-06-19T09:50:11.416Z,67.92
2018-06-19T09:52:39.069Z,68.16
2018-06-19T09:55:07.204Z,68.17
2018-06-19T09:57:34.974Z,68.58
2018-06-19T10:00:02.688Z,68.43
2018-06-19T10:02:30.576Z,68.56
2018-06-19T10:04:58.090Z,68.69
2018-06-19T10:07:25.828Z,69.01
2018-06-19T10:09:53.639Z,68.97
2018-06-19T10:12:21.520Z,69.01
2018-06-19T10:14:49.250Z,68.49
2018-06-19T10:17:17.215Z,68.58
2018-06-19T10:19:44.862Z,69.12
2018-06-19T10:22:12.834Z,69.11
2018-06-19T10:24:40.575Z,68.99
2018-06-19T10:27:08.226Z,69.11
2018-06-19T10:29:36.094Z,68.83
2018-06-19T10:32:03.970Z,69.18
2018-06-19T10:34:31.598Z,68.91
2018-06-19T10:36:59.293Z,69.07
2018-06-19T10:39:26.972Z,69.16
2018-06-19T10:41:54.610Z,69.60
2018-06-19T10:44:22.267Z,69.37
2018-06-19T10:46:49.884Z,70.06
2018-06-19T10:49:17.449Z,69.82
2018-06-19T10:51:44.996Z,70.11
2018-06-19T10:54:12.567Z,70.00
2018-06-19T10:56:40.120Z,70.06
2018-06-19T10:59:07.690Z,70.16
2018-06-19T11:01:36.511Z,69.85
2018-06-19T11:04:04.051Z,69.82
2018-06-19T11:06:31.660Z,69.26
2018-06-19T11:08:59.588Z,69.79
2018-06-19T11:11:27.139Z,69.10
2018-06-19T11:13:54.852Z,68.75
2018-06-19T11:16:22.645Z,68.40
2018-06-19T11:18:50.248Z,68.38
2018-06-19T11:21:17.970Z,68.15
2018-06-19T11:23:45.999Z,67.58
2018-06-19T11:26:14.051Z,67.21
2018-06-19T11:28:41.657Z,66.72
2018-06-19T11:31:09.507Z,66.55
2018-06-19T11:33:37.025Z,65.87
2018-06-19T11:36:04.716Z,66.03
2018-06-19T11:38:32.429Z,65.77
2018-06-19T11:41:00.029Z,65.62
2018-06-19T11:43:27.702Z,65.44
2018-06-19T11:45:55.376Z,64.91
2018-06-19T11:48:22.934Z,64.87
2018-06-19T11:50:50.707Z,64.62
2018-06-19T11:53:18.450Z,65.09
2018-06-19T11:55:45.976Z,64.33
2018-06-19T11:58:13.811Z,64.20
2018-06-19T12:00:41.504Z,64.16
2018-06-19T12:03:09.108Z,63.97
2018-06-19T12:05:37.959Z,63.98
2018-06-19T12:08:05.565Z,63.86
2018-06-19T12:10:33.190Z,63.40
2018-06-19T12:13:01.024Z,63.44
2018-06-19T12:15:28.764Z,62.63
2018-06-19T12:17:56.339Z,62.26
2018-06-19T12:20:24.196Z,61.77
2018-06-19T12:22:51.784Z,61.36
2018-06-19T12:25:19.610Z,60.64
2018-06-19T12:27:47.361Z,60.46
2018-06-19T12:30:15.100Z,59.97
2018-06-19T12:32:42.671Z,60.37
2018-06-19T12:35:10.457Z,59.73
2018-06-19T12:37:38.252Z,59.45
2018-06-19T12:40:06.081Z,58.76
2018-06-19T12:42:33.771Z,58.58
2018-06-19T12:45:01.481Z,57.97
2018-06-19T12:47:29.029Z,57.03
2018-06-19T12:50:36.018Z,56.98
2018-06-19T12:53:15.575Z,56.70
2018-06-19T12:55:54.541Z,56.29
2018-06-19T12:58:22.212Z,56.41
2018-06-19T13:00:49.791Z,55.92
2018-06-19T13:03:28.886Z,55.72
2018-06-19T13:06:08.195Z,55.93
2018-06-19T13:08:35.945Z,55.70
2018-06-19T13:11:04.075Z,55.95
2018-06-19T13:13:43.006Z,55.73
2018-06-19T13:16:21.806Z,55.34
2018-06-19T13:19:00.581Z,55.41
2018-06-19T13:21:28.331Z,54.69
2018-06-19T13:23:55.911Z,54.18
2018-06-19T13:26:23.760Z,54.14
2018-06-19T13:30:03.824Z,53.83
2018-06-19T13:32:32.046Z,54.24
2018-06-19T13:34:59.786Z,53.77
2018-06-19T13:37:27.336Z,53.56
2018-06-19T13:41:09.425Z,53.46
2018-06-19T13:43:48.105Z,53.27
2018-06-19T13:46:15.969Z,52.97
2018-06-19T13:48:43.589Z,52.50
2018-06-19T13:51:11.946Z,52.13
2018-06-19T13:53:40.336Z,52.16
2018-06-19T13:57:17.022Z,52.22
2018-06-19T13:59:45.018Z,51.62
2018-06-19T14:02:12.574Z,51.36
2018-06-19T14:04:40.197Z,51.29
2018-06-19T14:07:08.007Z,50.72
2018-06-19T14:09:48.074Z,50.85
2018-06-19T14:13:01.302Z,50.44
2018-06-19T14:15:30.268Z,49.93
2018-06-19T14:17:58.230Z,49.75
2018-06-19T14:20:25.989Z,50.21
2018-06-19T14:22:53.459Z,49.68
2018-06-19T14:25:21.561Z,50.23
2018-06-19T14:27:49.405Z,50.34
2018-06-19T14:30:16.939Z,49.94
2018-06-19T14:32:45.350Z,49.68
2018-06-19T14:35:13.055Z,48.83
2018-06-19T14:37:40.737Z,48.11
2018-06-19T14:40:08.583Z,47.94
2018-06-19T14:42:36.374Z,48.02
2018-06-19T14:45:04.627Z,47.78
2018-06-19T14:47:32.473Z,47.26
2018-06-19T14:50:00.117Z,47.56
2018-06-19T14:52:27.957Z,47.18
2018-06-19T14:54:55.844Z,46.77
2018-06-19T14:57:23.488Z,46.53
2018-06-19T14:59:51.065Z,46.79
2018-06-19T15:02:18.951Z,46.35
2018-06-19T15:04:46.675Z,46.21
2018-06-19T15:07:14.268Z,46.55
2018-06-19T15:09:42.223Z,45.61
2018-06-19T15:12:09.819Z,45.35
2018-06-19T15:14:37.385Z,45.41
2018-06-19T15:17:05.161Z,44.93
2018-06-19T15:22:31.431Z,44.54
2018-06-19T15:24:59.009Z,44.22
2018-06-19T15:27:26.647Z,43.51
2018-06-19T15:29:54.766Z,41.94
2018-06-19T15:32:22.582Z,42.26
2018-06-19T15:34:50.113Z,42.35
2018-06-19T15:37:18.227Z,41.29
2018-06-19T15:39:45.966Z,41.39
2018-06-19T15:42:13.508Z,41.49
2018-06-19T15:44:41.263Z,41.33
2018-06-19T15:47:08.882Z,41.50
2018-06-19T15:49:36.495Z,41.29
2018-06-19T15:52:04.529Z,41.30
2018-06-19T15:54:32.120Z,40.81
2018-06-19T15:56:59.677Z,41.46
2018-06-19T15:59:27.752Z,41.60
2018-06-19T16:01:55.308Z,41.09
2018-06-19T16:04:22.921Z,40.97
2018-06-19T16:06:50.633Z,41.55
2018-06-19T16:09:18.188Z,40.78
2018-06-19T16:11:45.799Z,41.36
2018-06-19T16:14:13.477Z,40.81
2018-06-19T16:16:41.104Z,40.30
2018-06-19T16:19:08.704Z,40.02
2018-06-19T16:21:36.542Z,40.49
2018-06-19T16:24:04.208Z,40.03
2018-06-19T16:26:31.884Z,40.74
2018-06-19T16:28:59.594Z,41.00
2018-06-19T16:31:27.318Z,41.17
2018-06-19T16:33:54.909Z,41.33
2018-06-19T16:36:22.775Z,41.41
2018-06-19T16:38:50.375Z,41.50
2018-06-19T16:41:18.000Z,41.46
2018-06-19T16:43:45.955Z,41.21
2018-06-19T16:46:13.600Z,40.90
2018-06-19T16:48:41.164Z,41.00
2018-06-19T16:51:09.588Z,41.03
2018-06-19T16:53:37.202Z,40.98
2018-06-19T16:56:04.868Z,41.00
2018-06-19T16:58:32.651Z,40.94
2018-06-19T17:01:00.207Z,40.57
2018-06-19T17:03:27.783Z,41.28
2018-06-19T17:05:55.667Z,41.12
2018-06-19T17:08:23.240Z,41.38
2018-06-19T17:10:50.773Z,41.26
2018-06-19T17:13:18.513Z,42.03
2018-06-19T17:15:46.061Z,42.09
2018-06-19T17:18:13.667Z,42.39
2018-06-19T17:20:41.761Z,42.89
2018-06-19T17:23:09.294Z,42.85
2018-06-19T17:25:36.799Z,43.65
2018-06-19T17:28:04.856Z,43.39
2018-06-19T17:30:32.408Z,44.17
2018-06-19T17:33:00.160Z,43.90
2018-06-19T17:35:28.079Z,43.66
2018-06-19T17:37:55.668Z,44.32
2018-06-19T17:40:23.280Z,43.73
2018-06-19T17:42:51.236Z,44.16
2018-06-19T17:45:18.808Z,43.76
2018-06-19T17:47:46.399Z,43.79
2018-06-19T17:50:14.178Z,44.32
2018-06-19T17:52:41.751Z,44.12
2018-06-19T17:55:09.363Z,44.00
2018-06-19T17:57:37.064Z,44.14
2018-06-19T18:00:04.844Z,43.99
2018-06-19T18:02:32.428Z,44.09
2018-06-19T18:05:00.185Z,44.02
2018-06-19T18:07:27.757Z,43.91
2018-06-19T18:09:55.356Z,44.43
2018-06-19T18:12:23.074Z,44.41
2018-06-19T18:14:50.686Z,44.40
2018-06-19T18:17:18.350Z,44.55
2018-06-19T18:19:46.092Z,43.91
2018-06-19T18:22:13.688Z,44.49
2018-06-19T18:24:41.282Z,44.19
2018-06-19T18:27:08.996Z,44.09
2018-06-19T18:29:36.570Z,44.47
2018-06-19T18:32:04.148Z,44.13
2018-06-19T18:34:32.055Z,44.39
2018-06-19T18:36:59.630Z,43.68
2018-06-19T18:39:27.185Z,44.10
2018-06-19T18:41:54.944Z,44.17
2018-06-19T18:44:23.432Z,44.00
2018-06-19T18:46:51.044Z,43.75
2018-06-19T18:49:18.608Z,44.19
2018-06-19T18:51:46.249Z,43.26
2018-06-19T18:54:13.868Z,43.42
2018-06-19T18:56:41.621Z,43.50
2018-06-19T18:59:09.241Z,43.17
2018-06-19T19:01:36.829Z,43.51
2018-06-19T19:04:04.492Z,43.75
2018-06-19T19:06:32.160Z,42.80
2018-06-19T19:08:59.712Z,43.10
2018-06-19T19:11:27.430Z,43.13
2018-06-19T19:13:54.982Z,43.47
2018-06-19T19:16:28.055Z,43.30
2018-06-19T19:19:00.161Z,43.40
2018-06-19T19:21:27.688Z,43.03
2018-06-19T19:23:55.320Z,43.44
2018-06-19T19:26:28.642Z,43.36
2018-06-19T19:29:01.717Z,43.48
2018-06-19T19:31:29.781Z,43.60
2018-06-19T19:33:57.337Z,43.37
2018-06-19T19:36:30.614Z,43.66
2018-06-19T19:39:03.994Z,43.23
2018-06-19T19:41:31.644Z,43.43
2018-06-19T19:43:59.282Z,43.66
2018-06-19T19:46:32.462Z,44.29
2018-06-19T19:49:00.363Z,43.58
2018-06-19T19:51:28.479Z,43.61
2018-06-19T19:53:56.199Z,43.93
2018-06-19T19:56:29.305Z,44.02
2018-06-19T19:58:57.017Z,43.92
2018-06-19T20:01:24.666Z,44.17
2018-06-19T20:03:52.303Z,44.55
2018-06-19T20:06:20.017Z,44.29
2018-06-19T20:08:47.702Z,44.27
2018-06-19T20:11:15.275Z,44.21
2018-06-19T20:13:43.044Z,44.81
2018-06-19T20:16:10.658Z,44.45
2018-06-19T20:18:38.363Z,44.81
2018-06-19T20:21:06.124Z,44.77
2018-06-19T20:23:33.727Z,44.70
2018-06-19T20:26:01.419Z,44.90
2018-06-19T20:28:29.167Z,44.64
2018-06-19T20:30:56.867Z,44.85
2018-06-19T20:33:24.434Z,44.75
2018-06-19T20:35:52.145Z,44.84
2018-06-19T20:38:19.882Z,44.87
2018-06-19T20:40:47.497Z,44.95
2018-06-19T20:43:15.395Z,44.98
2018-06-19T20:45:43.251Z,44.96
2018-06-19T20:48:10.778Z,44.72
2018-06-19T20:50:38.495Z,44.50
2018-06-19T20:53:06.237Z,44.02
2018-06-19T20:55:33.761Z,44.01
2018-06-19T20:58:01.424Z,43.97
2018-06-19T21:00:29.159Z,43.75
2018-06-19T21:02:56.724Z,43.82
2018-06-19T21:05:24.613Z,44.22
2018-06-19T21:07:52.356Z,43.68
2018-06-19T21:10:19.894Z,43.70
2018-06-19T21:12:47.883Z,43.58
2018-06-19T21:15:15.481Z,43.67
2018-06-19T21:17:43.071Z,43.39
2018-06-19T21:20:11.163Z,43.03
2018-06-19T21:22:38.853Z,42.98
2018-06-19T21:25:06.455Z,43.46
2018-06-19T21:27:34.184Z,43.45
2018-06-19T21:30:01.932Z,43.09
2018-06-19T21:32:29.550Z,43.32
2018-06-19T21:34:57.335Z,43.38
2018-06-19T21:37:24.979Z,43.38
2018-06-19T21:39:52.729Z,43.26
2018-06-19T21:42:20.414Z,43.15
2018-06-19T21:44:48.235Z,42.84
2018-06-19T21:47:15.783Z,43.71
2018-06-19T21:49:43.468Z,43.73
2018-06-19T21:52:11.114Z,43.60
2018-06-19T21:54:38.676Z,43.47
2018-06-19T21:57:06.427Z,43.95
2018-06-19T21:59:34.089Z,43.72
2018-06-19T22:02:01.693Z,44.19
2018-06-19T22:04:29.427Z,43.92
2018-06-19T22:06:57.063Z,43.94
2018-06-19T22:09:24.606Z,44.00
2018-06-19T22:11:52.705Z,44.50
2018-06-19T22:14:20.541Z,44.41
2018-06-19T22:16:48.140Z,44.66
2018-06-19T22:19:15.903Z,44.33
2018-06-19T22:21:43.604Z,44.25
2018-06-19T22:24:11.128Z,44.42
2018-06-19T22:26:38.881Z,44.31
2018-06-19T22:29:06.577Z,44.35
2018-06-19T22:31:34.118Z,44.56
2018-06-19T22:34:02.149Z,44.88
2018-06-19T22:36:29.972Z,44.56
2018-06-19T22:38:57.507Z,44.41
2018-06-19T22:41:26.209Z,44.58
2018-06-19T22:43:53.839Z,44.44
2018-06-19T22:46:21.411Z,44.61
2018-06-19T22:48:49.019Z,45.01
2018-06-19T22:51:16.825Z,45.21
2018-06-19T22:53:44.425Z,45.35
2018-06-19T22:56:12.256Z,45.44
2018-06-19T22:58:39.929Z,45.32
2018-06-19T23:01:07.542Z,45.56
2018-06-19T23:03:35.406Z,45.60
2018-06-19T23:06:03.309Z,45.22
2018-06-19T23:08:33.337Z,45.83
2018-06-19T23:11:01.126Z,45.37
2018-06-19T23:13:28.897Z,45.72
2018-06-19T23:15:56.573Z,45.33
2018-06-19T23:18:24.360Z,45.67
2018-06-19T23:20:52.266Z,45.82
2018-06-19T23:23:19.913Z,46.04
2018-06-19T23:25:47.646Z,45.89
2018-06-19T23:28:15.440Z,46.14
2018-06-19T23:30:43.061Z,46.06
2018-06-19T23:33:10.965Z,45.69
2018-06-19T23:35:38.904Z,46.12
2018-06-19T23:38:06.533Z,46.00
2018-06-19T23:40:34.338Z,45.80
2018-06-19T23:43:02.337Z,46.12
2018-06-19T23:45:29.892Z,46.12
2018-06-19T23:47:57.657Z,46.19
2018-06-19T23:50:25.412Z,46.06
2018-06-19T23:52:53.038Z,46.33
2018-06-19T23:55:20.807Z,46.19
2018-06-19T23:57:48.629Z,45.97
